sensor_id;sensor_type;location;lat;lon;timestamp;temperature;humidity
23869;DHT22;12115;47.128;15.422;2024-01-25T00:01:39;10.70;97.10
23869;DHT22;12115;47.128;15.422;2024-01-25T00:04:05;10.70;97.40
23869;DHT22;12115;47.128;15.422;2024-01-25T00:06:32;10.70;96.10
23869;DHT22;12115;47.128;15.422;2024-01-25T00:08:58;10.70;96.70
23869;DHT22;12115;47.128;15.422;2024-01-25T00:11:25;10.80;96.40
23869;DHT22;12115;47.128;15.422;2024-01-25T00:13:51;10.80;96.00
23869;DHT22;12115;47.128;15.422;2024-01-25T00:16:18;10.70;95.70
23869;DHT22;12115;47.128;15.422;2024-01-25T00:18:46;10.70;95.70
23869;DHT22;12115;47.128;15.422;2024-01-25T00:21:12;10.80;95.10
23869;DHT22;12115;47.128;15.422;2024-01-25T00:23:39;10.70;95.90
23869;DHT22;12115;47.128;15.422;2024-01-25T00:26:05;10.80;96.10
23869;DHT22;12115;47.128;15.422;2024-01-25T00:28:32;10.70;96.30
23869;DHT22;12115;47.128;15.422;2024-01-25T00:30:59;10.80;95.90
23869;DHT22;12115;47.128;15.422;2024-01-25T00:33:26;10.80;95.30
23869;DHT22;12115;47.128;15.422;2024-01-25T00:35:54;10.80;95.10
23869;DHT22;12115;47.128;15.422;2024-01-25T00:38:21;10.80;95.40
23869;DHT22;12115;47.128;15.422;2024-01-25T00:40:48;10.70;95.40
23869;DHT22;12115;47.128;15.422;2024-01-25T00:43:15;10.70;95.70
23869;DHT22;12115;47.128;15.422;2024-01-25T00:45:43;10.70;95.90
23869;DHT22;12115;47.128;15.422;2024-01-25T00:48:12;10.70;95.90
23869;DHT22;12115;47.128;15.422;2024-01-25T00:50:39;10.70;96.20
23869;DHT22;12115;47.128;15.422;2024-01-25T00:53:06;10.70;95.70
23869;DHT22;12115;47.128;15.422;2024-01-25T00:55:33;10.70;95.40
23869;DHT22;12115;47.128;15.422;2024-01-25T00:58:00;10.70;95.70
23869;DHT22;12115;47.128;15.422;2024-01-25T01:00:30;10.70;95.70
23869;DHT22;12115;47.128;15.422;2024-01-25T01:02:58;10.70;95.80
23869;DHT22;12115;47.128;15.422;2024-01-25T01:05:27;10.70;95.90
23869;DHT22;12115;47.128;15.422;2024-01-25T01:07:54;10.70;95.20
23869;DHT22;12115;47.128;15.422;2024-01-25T01:10:22;10.60;95.10
23869;DHT22;12115;47.128;15.422;2024-01-25T01:12:48;10.60;95.00
23869;DHT22;12115;47.128;15.422;2024-01-25T01:15:15;10.60;95.40
23869;DHT22;12115;47.128;15.422;2024-01-25T01:17:41;10.60;95.60
23869;DHT22;12115;47.128;15.422;2024-01-25T01:20:08;10.60;94.70
23869;DHT22;12115;47.128;15.422;2024-01-25T01:22:35;10.60;95.00
23869;DHT22;12115;47.128;15.422;2024-01-25T01:25:02;10.60;94.90
23869;DHT22;12115;47.128;15.422;2024-01-25T01:27:28;10.60;94.30
23869;DHT22;12115;47.128;15.422;2024-01-25T01:29:55;10.60;94.60
23869;DHT22;12115;47.128;15.422;2024-01-25T01:32:21;10.60;94.60
23869;DHT22;12115;47.128;15.422;2024-01-25T01:34:47;10.60;94.50
23869;DHT22;12115;47.128;15.422;2024-01-25T01:37:14;10.50;94.70
23869;DHT22;12115;47.128;15.422;2024-01-25T01:39:41;10.60;95.00
23869;DHT22;12115;47.128;15.422;2024-01-25T01:42:07;10.60;95.10
23869;DHT22;12115;47.128;15.422;2024-01-25T01:44:33;10.50;94.80
23869;DHT22;12115;47.128;15.422;2024-01-25T01:47:00;10.50;94.70
23869;DHT22;12115;47.128;15.422;2024-01-25T01:49:27;10.50;94.70
23869;DHT22;12115;47.128;15.422;2024-01-25T01:51:55;10.50;94.70
23869;DHT22;12115;47.128;15.422;2024-01-25T01:54:21;10.50;95.00
23869;DHT22;12115;47.128;15.422;2024-01-25T01:56:48;10.40;94.60
23869;DHT22;12115;47.128;15.422;2024-01-25T01:59:15;10.50;94.20
23869;DHT22;12115;47.128;15.422;2024-01-25T02:01:42;10.50;94.30
23869;DHT22;12115;47.128;15.422;2024-01-25T02:04:08;10.50;94.60
23869;DHT22;12115;47.128;15.422;2024-01-25T02:06:35;10.50;94.40
23869;DHT22;12115;47.128;15.422;2024-01-25T02:09:02;10.40;94.60
23869;DHT22;12115;47.128;15.422;2024-01-25T02:11:29;10.40;94.60
23869;DHT22;12115;47.128;15.422;2024-01-25T02:13:56;10.50;94.60
23869;DHT22;12115;47.128;15.422;2024-01-25T02:16:22;10.50;94.50
23869;DHT22;12115;47.128;15.422;2024-01-25T02:18:49;10.40;94.70
23869;DHT22;12115;47.128;15.422;2024-01-25T02:21:17;10.40;94.60
23869;DHT22;12115;47.128;15.422;2024-01-25T02:23:43;10.40;94.60
23869;DHT22;12115;47.128;15.422;2024-01-25T02:26:09;10.40;95.00
23869;DHT22;12115;47.128;15.422;2024-01-25T02:28:36;10.40;95.10
23869;DHT22;12115;47.128;15.422;2024-01-25T02:31:03;10.40;94.80
23869;DHT22;12115;47.128;15.422;2024-01-25T02:33:30;10.30;94.20
23869;DHT22;12115;47.128;15.422;2024-01-25T02:35:57;10.30;94.80
23869;DHT22;12115;47.128;15.422;2024-01-25T02:38:24;10.30;94.70
23869;DHT22;12115;47.128;15.422;2024-01-25T02:40:50;10.30;94.40
23869;DHT22;12115;47.128;15.422;2024-01-25T02:43:17;10.40;94.60
23869;DHT22;12115;47.128;15.422;2024-01-25T02:45:44;10.30;94.50
23869;DHT22;12115;47.128;15.422;2024-01-25T02:48:10;10.30;94.60
23869;DHT22;12115;47.128;15.422;2024-01-25T02:50:37;10.40;94.50
23869;DHT22;12115;47.128;15.422;2024-01-25T02:53:06;10.30;94.60
23869;DHT22;12115;47.128;15.422;2024-01-25T02:55:32;10.30;94.00
23869;DHT22;12115;47.128;15.422;2024-01-25T02:57:58;10.30;94.10
23869;DHT22;12115;47.128;15.422;2024-01-25T03:00:26;10.30;94.30
23869;DHT22;12115;47.128;15.422;2024-01-25T03:02:53;10.30;94.50
23869;DHT22;12115;47.128;15.422;2024-01-25T03:05:19;10.30;94.20
23869;DHT22;12115;47.128;15.422;2024-01-25T03:07:45;10.30;94.00
23869;DHT22;12115;47.128;15.422;2024-01-25T03:10:13;10.30;93.70
23869;DHT22;12115;47.128;15.422;2024-01-25T03:12:39;10.30;94.00
23869;DHT22;12115;47.128;15.422;2024-01-25T03:15:06;10.30;93.60
23869;DHT22;12115;47.128;15.422;2024-01-25T03:17:33;10.30;93.90
23869;DHT22;12115;47.128;15.422;2024-01-25T03:19:59;10.20;93.30
23869;DHT22;12115;47.128;15.422;2024-01-25T03:22:26;10.20;93.50
23869;DHT22;12115;47.128;15.422;2024-01-25T03:24:53;10.20;93.20
23869;DHT22;12115;47.128;15.422;2024-01-25T03:27:19;10.20;93.50
23869;DHT22;12115;47.128;15.422;2024-01-25T03:29:46;10.10;92.70
23869;DHT22;12115;47.128;15.422;2024-01-25T03:32:12;10.10;93.00
23869;DHT22;12115;47.128;15.422;2024-01-25T03:34:39;10.20;92.90
23869;DHT22;12115;47.128;15.422;2024-01-25T03:37:06;10.10;92.80
23869;DHT22;12115;47.128;15.422;2024-01-25T03:39:32;10.10;93.20
23869;DHT22;12115;47.128;15.422;2024-01-25T03:41:59;10.10;93.30
23869;DHT22;12115;47.128;15.422;2024-01-25T03:44:25;10.10;92.60
23869;DHT22;12115;47.128;15.422;2024-01-25T03:46:52;10.10;92.90
23869;DHT22;12115;47.128;15.422;2024-01-25T03:49:19;10.00;93.10
23869;DHT22;12115;47.128;15.422;2024-01-25T03:51:46;10.00;93.20
23869;DHT22;12115;47.128;15.422;2024-01-25T03:54:12;9.90;93.20
23869;DHT22;12115;47.128;15.422;2024-01-25T03:56:40;9.90;93.00
23869;DHT22;12115;47.128;15.422;2024-01-25T03:59:08;9.90;92.90
23869;DHT22;12115;47.128;15.422;2024-01-25T04:01:44;9.90;93.20
23869;DHT22;12115;47.128;15.422;2024-01-25T04:04:11;9.90;93.20
23869;DHT22;12115;47.128;15.422;2024-01-25T04:06:42;9.90;93.00
23869;DHT22;12115;47.128;15.422;2024-01-25T04:09:09;9.80;92.80
23869;DHT22;12115;47.128;15.422;2024-01-25T04:11:37;9.80;93.00
23869;DHT22;12115;47.128;15.422;2024-01-25T04:14:04;9.80;93.10
23869;DHT22;12115;47.128;15.422;2024-01-25T04:16:31;9.80;93.20
23869;DHT22;12115;47.128;15.422;2024-01-25T04:18:58;9.80;93.40
23869;DHT22;12115;47.128;15.422;2024-01-25T04:21:27;9.80;93.40
23869;DHT22;12115;47.128;15.422;2024-01-25T04:23:53;9.70;93.50
23869;DHT22;12115;47.128;15.422;2024-01-25T04:26:20;9.70;93.40
23869;DHT22;12115;47.128;15.422;2024-01-25T04:28:46;9.70;93.60
23869;DHT22;12115;47.128;15.422;2024-01-25T04:31:13;9.70;93.60
23869;DHT22;12115;47.128;15.422;2024-01-25T04:33:40;9.70;93.70
23869;DHT22;12115;47.128;15.422;2024-01-25T04:36:09;9.70;93.80
23869;DHT22;12115;47.128;15.422;2024-01-25T04:38:36;9.60;93.90
23869;DHT22;12115;47.128;15.422;2024-01-25T04:41:03;9.60;94.00
23869;DHT22;12115;47.128;15.422;2024-01-25T04:43:34;9.60;94.10
23869;DHT22;12115;47.128;15.422;2024-01-25T04:46:01;9.60;94.20
23869;DHT22;12115;47.128;15.422;2024-01-25T04:48:29;9.50;94.20
23869;DHT22;12115;47.128;15.422;2024-01-25T04:50:57;9.50;94.20
23869;DHT22;12115;47.128;15.422;2024-01-25T04:53:24;9.50;94.20
23869;DHT22;12115;47.128;15.422;2024-01-25T04:55:51;9.50;94.20
23869;DHT22;12115;47.128;15.422;2024-01-25T04:58:18;9.50;94.30
23869;DHT22;12115;47.128;15.422;2024-01-25T05:00:44;9.40;94.30
23869;DHT22;12115;47.128;15.422;2024-01-25T05:03:11;9.40;94.40
23869;DHT22;12115;47.128;15.422;2024-01-25T05:05:38;9.40;94.40
23869;DHT22;12115;47.128;15.422;2024-01-25T05:08:05;9.40;94.60
23869;DHT22;12115;47.128;15.422;2024-01-25T05:10:32;9.40;94.60
23869;DHT22;12115;47.128;15.422;2024-01-25T05:12:58;9.30;94.70
23869;DHT22;12115;47.128;15.422;2024-01-25T05:15:25;9.30;94.70
23869;DHT22;12115;47.128;15.422;2024-01-25T05:17:51;9.30;94.80
23869;DHT22;12115;47.128;15.422;2024-01-25T05:20:19;9.30;94.80
23869;DHT22;12115;47.128;15.422;2024-01-25T05:22:47;9.30;95.00
23869;DHT22;12115;47.128;15.422;2024-01-25T05:25:14;9.20;95.10
23869;DHT22;12115;47.128;15.422;2024-01-25T05:27:41;9.20;95.20
23869;DHT22;12115;47.128;15.422;2024-01-25T05:30:07;9.20;95.20
23869;DHT22;12115;47.128;15.422;2024-01-25T05:32:34;9.20;95.30
23869;DHT22;12115;47.128;15.422;2024-01-25T05:35:00;9.10;95.50
23869;DHT22;12115;47.128;15.422;2024-01-25T05:37:27;9.10;95.60
23869;DHT22;12115;47.128;15.422;2024-01-25T05:39:55;9.10;95.70
23869;DHT22;12115;47.128;15.422;2024-01-25T05:42:23;9.10;95.90
23869;DHT22;12115;47.128;15.422;2024-01-25T05:44:51;9.20;96.20
23869;DHT22;12115;47.128;15.422;2024-01-25T05:47:18;9.10;96.10
23869;DHT22;12115;47.128;15.422;2024-01-25T05:49:46;9.10;96.10
23869;DHT22;12115;47.128;15.422;2024-01-25T05:52:13;9.10;96.30
23869;DHT22;12115;47.128;15.422;2024-01-25T05:54:40;9.10;96.60
23869;DHT22;12115;47.128;15.422;2024-01-25T05:57:07;9.00;96.60
23869;DHT22;12115;47.128;15.422;2024-01-25T05:59:34;9.00;96.90
23869;DHT22;12115;47.128;15.422;2024-01-25T06:02:00;9.00;97.10
23869;DHT22;12115;47.128;15.422;2024-01-25T06:04:27;9.00;97.10
23869;DHT22;12115;47.128;15.422;2024-01-25T06:06:55;8.90;97.30
23869;DHT22;12115;47.128;15.422;2024-01-25T06:09:23;8.90;97.30
23869;DHT22;12115;47.128;15.422;2024-01-25T06:11:55;8.90;97.50
23869;DHT22;12115;47.128;15.422;2024-01-25T06:14:21;8.90;97.90
23869;DHT22;12115;47.128;15.422;2024-01-25T06:16:49;8.80;97.60
23869;DHT22;12115;47.128;15.422;2024-01-25T06:19:16;8.90;97.80
23869;DHT22;12115;47.128;15.422;2024-01-25T06:21:43;8.90;97.70
23869;DHT22;12115;47.128;15.422;2024-01-25T06:24:09;8.90;97.80
23869;DHT22;12115;47.128;15.422;2024-01-25T06:26:36;8.90;97.70
23869;DHT22;12115;47.128;15.422;2024-01-25T06:29:02;8.90;97.80
23869;DHT22;12115;47.128;15.422;2024-01-25T06:31:29;8.90;98.00
23869;DHT22;12115;47.128;15.422;2024-01-25T06:33:56;8.80;98.10
23869;DHT22;12115;47.128;15.422;2024-01-25T06:36:23;8.80;97.90
23869;DHT22;12115;47.128;15.422;2024-01-25T06:38:50;8.80;98.10
23869;DHT22;12115;47.128;15.422;2024-01-25T06:41:17;8.80;98.20
23869;DHT22;12115;47.128;15.422;2024-01-25T06:43:43;8.80;98.40
23869;DHT22;12115;47.128;15.422;2024-01-25T06:46:10;8.80;98.50
23869;DHT22;12115;47.128;15.422;2024-01-25T06:48:36;8.80;98.90
23869;DHT22;12115;47.128;15.422;2024-01-25T06:51:03;8.80;98.80
23869;DHT22;12115;47.128;15.422;2024-01-25T06:53:30;8.80;98.70
23869;DHT22;12115;47.128;15.422;2024-01-25T06:55:56;8.80;98.70
23869;DHT22;12115;47.128;15.422;2024-01-25T06:58:25;8.80;99.00
23869;DHT22;12115;47.128;15.422;2024-01-25T07:00:54;8.80;99.30
23869;DHT22;12115;47.128;15.422;2024-01-25T07:03:21;8.70;99.10
23869;DHT22;12115;47.128;15.422;2024-01-25T07:05:48;8.80;99.40
23869;DHT22;12115;47.128;15.422;2024-01-25T07:08:15;8.80;99.70
23869;DHT22;12115;47.128;15.422;2024-01-25T07:10:43;9.10;99.90
23869;DHT22;12115;47.128;15.422;2024-01-25T07:13:10;9.40;99.80
23869;DHT22;12115;47.128;15.422;2024-01-25T07:15:37;9.80;99.40
23869;DHT22;12115;47.128;15.422;2024-01-25T07:18:04;10.20;99.50
23869;DHT22;12115;47.128;15.422;2024-01-25T07:20:31;10.50;99.20
23869;DHT22;12115;47.128;15.422;2024-01-25T07:22:57;10.80;99.10
23869;DHT22;12115;47.128;15.422;2024-01-25T07:25:24;11.10;98.90
23869;DHT22;12115;47.128;15.422;2024-01-25T07:27:51;11.30;98.50
23869;DHT22;12115;47.128;15.422;2024-01-25T07:30:17;11.50;98.60
23869;DHT22;12115;47.128;15.422;2024-01-25T07:32:45;11.70;97.90
23869;DHT22;12115;47.128;15.422;2024-01-25T07:35:12;12.10;98.10
23869;DHT22;12115;47.128;15.422;2024-01-25T07:37:39;12.50;97.40
23869;DHT22;12115;47.128;15.422;2024-01-25T07:40:07;13.00;97.00
23869;DHT22;12115;47.128;15.422;2024-01-25T07:42:34;13.30;96.70
23869;DHT22;12115;47.128;15.422;2024-01-25T07:45:00;13.50;96.10
23869;DHT22;12115;47.128;15.422;2024-01-25T07:47:27;13.90;96.10
23869;DHT22;12115;47.128;15.422;2024-01-25T07:49:53;14.20;95.20
23869;DHT22;12115;47.128;15.422;2024-01-25T07:52:19;14.50;94.70
23869;DHT22;12115;47.128;15.422;2024-01-25T07:54:46;14.80;95.20
23869;DHT22;12115;47.128;15.422;2024-01-25T07:57:13;15.10;94.60
23869;DHT22;12115;47.128;15.422;2024-01-25T07:59:40;15.50;94.10
23869;DHT22;12115;47.128;15.422;2024-01-25T08:02:07;15.80;93.20
23869;DHT22;12115;47.128;15.422;2024-01-25T08:04:35;16.10;93.40
23869;DHT22;12115;47.128;15.422;2024-01-25T08:07:02;16.30;92.60
23869;DHT22;12115;47.128;15.422;2024-01-25T08:09:30;16.60;91.60
23869;DHT22;12115;47.128;15.422;2024-01-25T08:11:57;16.80;91.40
23869;DHT22;12115;47.128;15.422;2024-01-25T08:14:23;17.10;91.00
23869;DHT22;12115;47.128;15.422;2024-01-25T08:16:50;17.30;90.40
23869;DHT22;12115;47.128;15.422;2024-01-25T08:19:17;17.50;90.20
23869;DHT22;12115;47.128;15.422;2024-01-25T08:21:43;17.80;88.90
23869;DHT22;12115;47.128;15.422;2024-01-25T08:24:10;17.70;87.30
23869;DHT22;12115;47.128;15.422;2024-01-25T08:26:38;18.00;86.70
23869;DHT22;12115;47.128;15.422;2024-01-25T08:29:05;18.20;86.90
23869;DHT22;12115;47.128;15.422;2024-01-25T08:31:32;18.40;86.30
23869;DHT22;12115;47.128;15.422;2024-01-25T08:33:58;18.70;84.60
23869;DHT22;12115;47.128;15.422;2024-01-25T08:36:26;18.80;81.70
23869;DHT22;12115;47.128;15.422;2024-01-25T08:38:53;18.80;82.60
23869;DHT22;12115;47.128;15.422;2024-01-25T08:41:20;18.80;81.20
23869;DHT22;12115;47.128;15.422;2024-01-25T08:43:46;19.00;81.30
23869;DHT22;12115;47.128;15.422;2024-01-25T08:46:14;19.20;79.60
23869;DHT22;12115;47.128;15.422;2024-01-25T08:48:45;19.20;77.80
23869;DHT22;12115;47.128;15.422;2024-01-25T08:51:12;19.30;78.60
23869;DHT22;12115;47.128;15.422;2024-01-25T08:53:38;19.20;76.10
23869;DHT22;12115;47.128;15.422;2024-01-25T08:56:05;19.20;76.10
23869;DHT22;12115;47.128;15.422;2024-01-25T08:58:32;19.10;76.80
23869;DHT22;12115;47.128;15.422;2024-01-25T09:00:59;19.40;75.60
23869;DHT22;12115;47.128;15.422;2024-01-25T09:03:28;19.70;74.40
23869;DHT22;12115;47.128;15.422;2024-01-25T09:05:55;19.80;72.70
23869;DHT22;12115;47.128;15.422;2024-01-25T09:08:22;19.60;71.20
23869;DHT22;12115;47.128;15.422;2024-01-25T09:10:48;19.40;71.80
23869;DHT22;12115;47.128;15.422;2024-01-25T09:13:15;19.50;71.30
23869;DHT22;12115;47.128;15.422;2024-01-25T09:15:42;19.60;70.20
23869;DHT22;12115;47.128;15.422;2024-01-25T09:18:10;19.70;69.30
23869;DHT22;12115;47.128;15.422;2024-01-25T09:20:36;19.50;69.80
23869;DHT22;12115;47.128;15.422;2024-01-25T09:23:03;19.50;69.20
23869;DHT22;12115;47.128;15.422;2024-01-25T09:25:30;19.70;67.80
23869;DHT22;12115;47.128;15.422;2024-01-25T09:27:56;19.80;67.70
23869;DHT22;12115;47.128;15.422;2024-01-25T09:30:24;19.80;66.40
23869;DHT22;12115;47.128;15.422;2024-01-25T09:32:56;19.90;66.40
23869;DHT22;12115;47.128;15.422;2024-01-25T09:35:25;19.60;64.60
23869;DHT22;12115;47.128;15.422;2024-01-25T09:37:52;19.70;65.40
23869;DHT22;12115;47.128;15.422;2024-01-25T09:40:19;19.60;64.70
23869;DHT22;12115;47.128;15.422;2024-01-25T09:42:47;19.70;63.90
23869;DHT22;12115;47.128;15.422;2024-01-25T09:45:18;19.90;64.40
23869;DHT22;12115;47.128;15.422;2024-01-25T09:47:52;20.10;62.70
23869;DHT22;12115;47.128;15.422;2024-01-25T09:50:20;19.70;62.90
23869;DHT22;12115;47.128;15.422;2024-01-25T09:52:50;19.80;62.20
23869;DHT22;12115;47.128;15.422;2024-01-25T09:55:20;19.90;62.00
23869;DHT22;12115;47.128;15.422;2024-01-25T09:57:51;20.30;62.50
23869;DHT22;12115;47.128;15.422;2024-01-25T10:00:19;20.20;60.60
23869;DHT22;12115;47.128;15.422;2024-01-25T10:02:49;20.10;60.40
23869;DHT22;12115;47.128;15.422;2024-01-25T10:05:19;20.10;58.50
23869;DHT22;12115;47.128;15.422;2024-01-25T10:07:46;20.30;58.70
23869;DHT22;12115;47.128;15.422;2024-01-25T10:10:13;20.40;57.90
23869;DHT22;12115;47.128;15.422;2024-01-25T10:12:40;20.10;57.60
23869;DHT22;12115;47.128;15.422;2024-01-25T10:15:07;20.30;57.70
23869;DHT22;12115;47.128;15.422;2024-01-25T10:17:40;20.30;57.50
23869;DHT22;12115;47.128;15.422;2024-01-25T10:20:47;20.30;55.60
23869;DHT22;12115;47.128;15.422;2024-01-25T10:23:14;20.40;56.20
23869;DHT22;12115;47.128;15.422;2024-01-25T10:28:19;20.90;55.10
23869;DHT22;12115;47.128;15.422;2024-01-25T10:30:47;21.00;54.50
23869;DHT22;12115;47.128;15.422;2024-01-25T10:35:43;21.00;52.60
23869;DHT22;12115;47.128;15.422;2024-01-25T10:38:11;20.90;51.00
23869;DHT22;12115;47.128;15.422;2024-01-25T10:40:39;21.10;52.80
23869;DHT22;12115;47.128;15.422;2024-01-25T10:43:07;21.30;53.20
23869;DHT22;12115;47.128;15.422;2024-01-25T10:45:34;21.40;51.10
23869;DHT22;12115;47.128;15.422;2024-01-25T10:48:01;21.40;51.00
23869;DHT22;12115;47.128;15.422;2024-01-25T10:50:28;21.50;52.60
23869;DHT22;12115;47.128;15.422;2024-01-25T10:52:54;21.80;51.30
23869;DHT22;12115;47.128;15.422;2024-01-25T10:55:24;22.00;51.40
23869;DHT22;12115;47.128;15.422;2024-01-25T10:57:52;22.10;49.50
23869;DHT22;12115;47.128;15.422;2024-01-25T11:00:21;22.20;50.40
23869;DHT22;12115;47.128;15.422;2024-01-25T11:02:51;22.20;49.90
23869;DHT22;12115;47.128;15.422;2024-01-25T11:05:18;22.30;48.80
23869;DHT22;12115;47.128;15.422;2024-01-25T11:07:48;22.30;49.70
23869;DHT22;12115;47.128;15.422;2024-01-25T11:10:20;22.30;49.10
23869;DHT22;12115;47.128;15.422;2024-01-25T11:12:51;22.40;48.60
23869;DHT22;12115;47.128;15.422;2024-01-25T11:15:21;22.10;48.30
23869;DHT22;12115;47.128;15.422;2024-01-25T11:17:54;21.60;48.40
23869;DHT22;12115;47.128;15.422;2024-01-25T11:20:26;21.90;48.50
23869;DHT22;12115;47.128;15.422;2024-01-25T11:25:27;22.10;48.50
23869;DHT22;12115;47.128;15.422;2024-01-25T11:27:56;21.90;47.00
23869;DHT22;12115;47.128;15.422;2024-01-25T11:30:23;22.30;47.10
23869;DHT22;12115;47.128;15.422;2024-01-25T11:32:49;22.80;47.20
23869;DHT22;12115;47.128;15.422;2024-01-25T11:35:16;23.00;46.20
23869;DHT22;12115;47.128;15.422;2024-01-25T11:37:46;23.50;44.70
23869;DHT22;12115;47.128;15.422;2024-01-25T11:40:15;24.20;45.70
23869;DHT22;12115;47.128;15.422;2024-01-25T11:42:49;25.10;44.40
23869;DHT22;12115;47.128;15.422;2024-01-25T11:45:17;24.80;43.50
23869;DHT22;12115;47.128;15.422;2024-01-25T11:47:46;22.70;45.00
23869;DHT22;12115;47.128;15.422;2024-01-25T11:50:13;20.80;46.60
23869;DHT22;12115;47.128;15.422;2024-01-25T11:52:40;19.60;48.20
23869;DHT22;12115;47.128;15.422;2024-01-25T11:55:12;18.80;49.30
23869;DHT22;12115;47.128;15.422;2024-01-25T11:57:39;18.10;51.10
23869;DHT22;12115;47.128;15.422;2024-01-25T12:00:09;17.80;51.90
23869;DHT22;12115;47.128;15.422;2024-01-25T12:02:37;17.60;52.30
23869;DHT22;12115;47.128;15.422;2024-01-25T12:05:08;17.50;52.80
23869;DHT22;12115;47.128;15.422;2024-01-25T12:07:40;17.20;52.50
23869;DHT22;12115;47.128;15.422;2024-01-25T12:10:10;17.00;53.40
23869;DHT22;12115;47.128;15.422;2024-01-25T12:12:38;16.70;54.10
23869;DHT22;12115;47.128;15.422;2024-01-25T12:15:06;16.50;54.90
23869;DHT22;12115;47.128;15.422;2024-01-25T12:17:36;16.10;55.00
23869;DHT22;12115;47.128;15.422;2024-01-25T12:20:04;16.00;56.30
23869;DHT22;12115;47.128;15.422;2024-01-25T12:22:37;15.90;56.40
23869;DHT22;12115;47.128;15.422;2024-01-25T12:25:07;15.70;56.10
23869;DHT22;12115;47.128;15.422;2024-01-25T12:27:35;15.60;56.10
23869;DHT22;12115;47.128;15.422;2024-01-25T12:30:04;15.50;56.90
23869;DHT22;12115;47.128;15.422;2024-01-25T12:32:31;15.30;57.10
23869;DHT22;12115;47.128;15.422;2024-01-25T12:34:58;15.30;57.40
23869;DHT22;12115;47.128;15.422;2024-01-25T12:37:27;15.20;57.60
23869;DHT22;12115;47.128;15.422;2024-01-25T12:39:54;15.20;58.00
23869;DHT22;12115;47.128;15.422;2024-01-25T12:42:22;14.80;58.40
23869;DHT22;12115;47.128;15.422;2024-01-25T12:44:52;14.70;59.30
23869;DHT22;12115;47.128;15.422;2024-01-25T12:47:18;14.60;58.70
23869;DHT22;12115;47.128;15.422;2024-01-25T12:49:45;14.50;58.90
23869;DHT22;12115;47.128;15.422;2024-01-25T12:52:12;14.40;58.60
23869;DHT22;12115;47.128;15.422;2024-01-25T12:54:39;14.30;58.50
23869;DHT22;12115;47.128;15.422;2024-01-25T12:57:12;14.20;58.60
23869;DHT22;12115;47.128;15.422;2024-01-25T12:59:42;14.10;59.00
23869;DHT22;12115;47.128;15.422;2024-01-25T13:02:08;14.00;59.10
23869;DHT22;12115;47.128;15.422;2024-01-25T13:04:35;14.00;59.00
23869;DHT22;12115;47.128;15.422;2024-01-25T13:07:05;13.90;59.40
23869;DHT22;12115;47.128;15.422;2024-01-25T13:09:31;13.70;59.60
23869;DHT22;12115;47.128;15.422;2024-01-25T13:12:00;13.70;59.90
23869;DHT22;12115;47.128;15.422;2024-01-25T13:14:29;13.70;59.70
23869;DHT22;12115;47.128;15.422;2024-01-25T13:16:56;13.60;59.50
23869;DHT22;12115;47.128;15.422;2024-01-25T13:19:24;13.50;59.60
23869;DHT22;12115;47.128;15.422;2024-01-25T13:21:51;13.40;59.70
23869;DHT22;12115;47.128;15.422;2024-01-25T13:24:19;13.30;59.50
23869;DHT22;12115;47.128;15.422;2024-01-25T13:26:49;13.30;59.80
23869;DHT22;12115;47.128;15.422;2024-01-25T13:29:16;13.30;60.40
23869;DHT22;12115;47.128;15.422;2024-01-25T13:31:43;13.30;60.60
23869;DHT22;12115;47.128;15.422;2024-01-25T13:34:09;13.30;60.70
23869;DHT22;12115;47.128;15.422;2024-01-25T13:36:36;13.30;60.00
23869;DHT22;12115;47.128;15.422;2024-01-25T13:39:02;13.10;60.90
23869;DHT22;12115;47.128;15.422;2024-01-25T13:41:29;13.00;61.10
23869;DHT22;12115;47.128;15.422;2024-01-25T13:43:56;12.90;61.70
23869;DHT22;12115;47.128;15.422;2024-01-25T13:46:26;13.00;61.30
23869;DHT22;12115;47.128;15.422;2024-01-25T13:48:55;12.90;61.00
23869;DHT22;12115;47.128;15.422;2024-01-25T13:51:22;13.00;61.30
23869;DHT22;12115;47.128;15.422;2024-01-25T13:53:49;12.90;60.90
23869;DHT22;12115;47.128;15.422;2024-01-25T13:56:19;12.80;62.10
23869;DHT22;12115;47.128;15.422;2024-01-25T13:58:45;12.80;62.20
23869;DHT22;12115;47.128;15.422;2024-01-25T14:01:12;12.70;61.40
23869;DHT22;12115;47.128;15.422;2024-01-25T14:03:39;12.70;61.60
23869;DHT22;12115;47.128;15.422;2024-01-25T14:06:13;12.70;61.70
23869;DHT22;12115;47.128;15.422;2024-01-25T14:08:40;12.70;61.40
23869;DHT22;12115;47.128;15.422;2024-01-25T14:11:09;12.70;61.40
23869;DHT22;12115;47.128;15.422;2024-01-25T14:14:01;12.70;61.10
23869;DHT22;12115;47.128;15.422;2024-01-25T14:16:29;12.60;61.20
23869;DHT22;12115;47.128;15.422;2024-01-25T14:18:56;12.70;61.00
23869;DHT22;12115;47.128;15.422;2024-01-25T14:21:25;12.60;61.30
23869;DHT22;12115;47.128;15.422;2024-01-25T14:23:52;12.70;61.00
23869;DHT22;12115;47.128;15.422;2024-01-25T14:26:19;12.60;61.10
23869;DHT22;12115;47.128;15.422;2024-01-25T14:28:47;12.60;60.90
23869;DHT22;12115;47.128;15.422;2024-01-25T14:31:14;12.60;61.10
23869;DHT22;12115;47.128;15.422;2024-01-25T14:33:41;12.60;61.20
23869;DHT22;12115;47.128;15.422;2024-01-25T14:36:12;12.50;61.10
23869;DHT22;12115;47.128;15.422;2024-01-25T14:38:40;12.40;61.50
23869;DHT22;12115;47.128;15.422;2024-01-25T14:41:09;12.40;61.20
23869;DHT22;12115;47.128;15.422;2024-01-25T14:43:39;12.30;61.40
23869;DHT22;12115;47.128;15.422;2024-01-25T14:46:07;12.30;61.40
23869;DHT22;12115;47.128;15.422;2024-01-25T14:48:33;12.30;62.20
23869;DHT22;12115;47.128;15.422;2024-01-25T14:50:59;12.30;61.50
23869;DHT22;12115;47.128;15.422;2024-01-25T14:53:26;12.30;61.00
23869;DHT22;12115;47.128;15.422;2024-01-25T14:55:52;12.30;61.20
23869;DHT22;12115;47.128;15.422;2024-01-25T14:58:20;12.10;61.90
23869;DHT22;12115;47.128;15.422;2024-01-25T15:00:49;12.10;61.80
23869;DHT22;12115;47.128;15.422;2024-01-25T15:03:15;12.20;61.50
23869;DHT22;12115;47.128;15.422;2024-01-25T15:05:42;12.10;62.00
23869;DHT22;12115;47.128;15.422;2024-01-25T15:08:08;12.10;62.30
23869;DHT22;12115;47.128;15.422;2024-01-25T15:10:34;12.00;62.20
23869;DHT22;12115;47.128;15.422;2024-01-25T15:13:01;12.00;62.20
23869;DHT22;12115;47.128;15.422;2024-01-25T15:15:28;12.00;62.30
23869;DHT22;12115;47.128;15.422;2024-01-25T15:17:54;11.90;62.60
23869;DHT22;12115;47.128;15.422;2024-01-25T15:20:21;11.80;63.80
23869;DHT22;12115;47.128;15.422;2024-01-25T15:22:47;11.70;64.00
23869;DHT22;12115;47.128;15.422;2024-01-25T15:25:14;11.70;64.00
23869;DHT22;12115;47.128;15.422;2024-01-25T15:27:40;11.70;63.00
23869;DHT22;12115;47.128;15.422;2024-01-25T15:30:07;11.70;62.70